Stacja Pogody Warszawa Praga Północ 


Stacja Pogody
Warszawa Praga Północ

 Szerokość N 52° 15 '43"    Długość E 21° 01' 22"    Wysokość 89 m n.p.m.


Wschód Słońca 07:16 Górowanie Słońca 12:20 Zachód Słońca 17:24 skorpion
Data juliańska 2456955.195 Odległość Słońca 148727856 km Średn. kątowa Słońca 0,322°
Wschód Księżyca 07:40 Zachód Księżyca 17:46 Wiek Księżyca 1 dni Moon
Widoczność Księżyca 0,47% Odległość Księżyca 389160 km Średn. kątowa Księżyca 0,307°
Dzień krótszy od najdłuższego o: 06:39 Długość dnia 10:07 Imieniny Rafała, Marcina, Antoniego




Warunki pogodowe uaktualnione 24-10-2014, o godzinie 16:36
Temperatura 8.2 °C ↓ Temperatura odczuwalna 4.1 °C
Punkt rosy -8.3 °C Humidex 4.5 °C
Deszcz na godzinę 0.0 mm Wilgotność względna 30% ↑
Prędkość wiatru (średnia) 1 km/h → Prędkość wiatru (podmuch) 6 km/h
Kierunek wiatru NW Skala Beaufort'a 2
Ciśnienie względne  1028 hPa Trend ciśnienia powolny spadek
Ciśnienie bezwzględne  1016 hPa Podstawa chmur 2108.0 m
METAR EPWA 241430Z 11009KT 080V140 CAVOK 04/M07 Q1029 NOSIG
TAF TAF EPWA 241130Z 2412/2512 10010KT CAVOK





 a

Valid XHTML 1.0 Transitional Valid CSS!